Time;durP1;ratioP1;P1;durP2;ratioP2;P2;SDS_P1;SDS_P2;PMS_P1;PMS_P2;Temp;Humidity;BMP_temperature;BMP_pressure;BME280_temperature;BME280_humidity;BME280_pressure;Samples;Min_cycle;Max_cycle;Signal;HPM_P1;HPM_P2
2022/11/01 06:38:09;;;;;;;;;;;21.30;99.90;;;;;;4958930;29;20368;-82
2022/11/01 06:40:36;;;;;;;;;;;21.30;99.90;;;;;;4959554;28;20389;-82
2022/11/01 06:43:04;;;;;;;;;;;21.20;99.90;;;;;;4959867;28;19934;-81
2022/11/01 06:45:31;;;;;;;;;;;21.20;99.90;;;;;;4959923;28;19926;-82
2022/11/01 06:47:57;;;;;;;;;;;21.20;99.90;;;;;;4973098;28;19926;-83
2022/11/01 06:50:24;;;;;;;;;;;22.50;99.90;;;;;;4970052;28;19934;-83
2022/11/01 06:52:51;;;;;;;;;;;21.30;99.90;;;;;;4972475;28;19934;-83
2022/11/01 06:55:19;;;;;;;;;;;21.30;99.90;;;;;;4971474;28;19926;-83
2022/11/01 06:57:52;;;;;;;;;;;21.30;99.90;;;;;;4969380;28;19927;-83
2022/11/01 07:00:19;;;;;;;;;;;21.30;99.90;;;;;;4969420;28;19934;-83
2022/11/01 07:02:45;;;;;;;;;;;21.30;99.90;;;;;;4968502;28;19927;-83
2022/11/01 07:05:12;;;;;;;;;;;21.20;99.90;;;;;;4967255;28;19930;-83
2022/11/01 07:07:40;;;;;;;;;;;21.30;99.90;;;;;;4966506;28;19926;-83
2022/11/01 07:10:07;;;;;;;;;;;21.30;99.90;;;;;;4965700;28;19926;-83
2022/11/01 07:12:35;;;;;;;;;;;21.30;99.90;;;;;;4966940;28;19927;-83
2022/11/01 07:15:03;;;;;;;;;;;21.20;99.90;;;;;;4967990;28;19934;-83
2022/11/01 07:17:29;;;;;;;;;;;21.30;99.90;;;;;;4968239;28;19926;-83
2022/11/01 07:19:56;;;;;;;;;;;21.30;99.90;;;;;;4968696;28;19927;-83
2022/11/01 07:22:23;;;;;;;;;;;21.30;99.90;;;;;;4968054;28;19930;-83
2022/11/01 07:24:49;;;;;;;;;;;21.30;99.90;;;;;;4970646;28;20278;-83
2022/11/01 07:27:16;;;;;;;;;;;21.30;99.90;;;;;;4972342;28;19927;-83
2022/11/01 07:29:44;;;;;;;;;;;21.40;99.90;;;;;;4972126;28;19937;-83
2022/11/01 07:32:11;;;;;;;;;;;21.30;99.90;;;;;;4971505;28;19927;-83
2022/11/01 07:34:37;;;;;;;;;;;21.30;99.90;;;;;;4972192;28;19926;-83
2022/11/01 07:37:04;;;;;;;;;;;21.40;99.90;;;;;;4971719;28;19926;-83
2022/11/01 07:39:30;;;;;;;;;;;21.30;99.90;;;;;;4971318;28;19973;-83
2022/11/01 07:41:58;;;;;;;;;;;21.20;99.90;;;;;;4972227;28;19927;-83
2022/11/01 07:44:24;;;;;;;;;;;21.20;99.90;;;;;;4971068;28;19926;-83
2022/11/01 07:46:52;;;;;;;;;;;21.30;99.90;;;;;;4971949;28;20378;-82
2022/11/01 07:49:19;;;;;;;;;;;21.30;99.90;;;;;;4972395;28;19926;-81
2022/11/01 07:51:45;;;;;;;;;;;21.30;99.90;;;;;;4969209;28;19926;-82
2022/11/01 07:54:12;;;;;;;;;;;21.40;99.90;;;;;;4962016;28;19926;-82
2022/11/01 07:56:39;;;;;;;;;;;21.30;99.90;;;;;;4962533;28;19934;-82
2022/11/01 07:59:05;;;;;;;;;;;21.30;99.90;;;;;;4965817;28;19933;-83
2022/11/01 08:01:32;;;;;;;;;;;21.30;99.90;;;;;;4972350;28;19926;-82
2022/11/01 08:04:00;;;;;;;;;;;21.30;99.90;;;;;;4975161;28;19926;-82
2022/11/01 08:06:26;;;;;;;;;;;21.40;99.90;;;;;;4974569;28;19927;-81
2022/11/01 08:08:53;;;;;;;;;;;21.40;99.90;;;;;;4969673;28;19938;-82
2022/11/01 08:11:21;;;;;;;;;;;21.40;99.90;;;;;;4958530;28;19933;-83
2022/11/01 08:13:48;;;;;;;;;;;21.40;99.90;;;;;;4958898;28;19926;-83
2022/11/01 08:16:16;;;;;;;;;;;21.90;99.90;;;;;;4960560;28;19934;-84
2022/11/01 08:18:44;;;;;;;;;;;21.30;99.90;;;;;;4959072;28;19930;-84
2022/11/01 08:21:17;;;;;;;;;;;21.50;99.90;;;;;;4960026;28;19950;-82
2022/11/01 08:23:44;;;;;;;;;;;21.40;99.90;;;;;;4964971;28;19931;-84
2022/11/01 08:26:11;;;;;;;;;;;21.40;99.90;;;;;;4960433;28;19932;-83
2022/11/01 08:28:37;;;;;;;;;;;21.30;99.90;;;;;;4961145;28;20025;-81
2022/11/01 08:31:05;;;;;;;;;;;21.30;99.90;;;;;;4961488;28;19989;-81
2022/11/01 08:33:32;;;;;;;;;;;21.30;99.90;;;;;;4960473;28;20017;-81
2022/11/01 08:35:59;;;;;;;;;;;21.30;99.90;;;;;;4960518;28;20305;-81
2022/11/01 08:38:27;;;;;;;;;;;21.40;99.90;;;;;;4960545;28;20448;-80
2022/11/01 08:40:53;;;;;;;;;;;21.30;99.90;;;;;;4961050;28;19926;-81
2022/11/01 08:43:20;;;;;;;;;;;21.30;99.90;;;;;;4961597;28;19927;-81
2022/11/01 08:45:47;;;;;;;;;;;21.20;99.90;;;;;;4963214;28;19927;-82
2022/11/01 08:48:14;;;;;;;;;;;21.20;99.90;;;;;;4964208;28;19930;-81
2022/11/01 08:50:40;;;;;;;;;;;21.20;99.90;;;;;;4961582;28;19950;-82
2022/11/01 08:53:07;;;;;;;;;;;21.10;99.90;;;;;;4957962;28;19927;-82
2022/11/01 08:55:36;;;;;;;;;;;21.10;99.90;;;;;;4958768;28;19931;-83
2022/11/01 08:58:03;;;;;;;;;;;21.00;99.90;;;;;;4958595;28;19926;-80
2022/11/01 09:00:29;;;;;;;;;;;21.00;99.90;;;;;;4958710;28;20009;-80
2022/11/01 09:05:40;;;;;;;;;;;21.00;99.90;;;;;;4958470;28;19982;-83
2022/11/01 09:08:08;;;;;;;;;;;20.90;99.90;;;;;;4958163;28;19934;-83
2022/11/01 09:10:38;;;;;;;;;;;20.80;99.90;;;;;;4961990;28;20285;-85
2022/11/01 09:13:08;;;;;;;;;;;20.90;99.90;;;;;;4959379;28;19930;-85
2022/11/01 09:15:35;;;;;;;;;;;21.00;99.90;;;;;;4957125;28;20021;-87
2022/11/01 09:18:05;;;;;;;;;;;21.00;99.90;;;;;;4957514;28;19927;-84
2022/11/01 09:20:35;;;;;;;;;;;21.00;99.90;;;;;;4957245;28;19981;-84
2022/11/01 09:23:01;;;;;;;;;;;21.00;99.90;;;;;;4957356;28;19934;-86
2022/11/01 09:25:28;;;;;;;;;;;21.00;99.90;;;;;;4957280;28;19927;-86
2022/11/01 09:27:57;;;;;;;;;;;21.00;99.90;;;;;;4957450;28;20436;-86
2022/11/01 09:30:24;;;;;;;;;;;21.10;99.90;;;;;;4958094;28;19930;-86
2022/11/01 09:32:50;;;;;;;;;;;21.00;99.90;;;;;;4960464;28;19926;-85
2022/11/01 09:35:18;;;;;;;;;;;21.20;99.90;;;;;;4962820;28;19926;-83
2022/11/01 09:37:46;;;;;;;;;;;21.10;99.90;;;;;;4961629;28;19970;-81
2022/11/01 09:40:14;;;;;;;;;;;21.10;99.90;;;;;;4962546;28;20013;-81
2022/11/01 09:42:43;;;;;;;;;;;21.10;99.90;;;;;;4972471;28;19933;-81
2022/11/01 09:45:15;;;;;;;;;;;21.10;99.90;;;;;;4963342;28;19926;-81
2022/11/01 09:47:44;;;;;;;;;;;21.10;99.90;;;;;;4962398;28;19926;-81
2022/11/01 09:50:14;;;;;;;;;;;21.10;99.90;;;;;;4961863;28;19926;-81
2022/11/01 09:52:40;;;;;;;;;;;21.10;99.90;;;;;;4962802;28;19926;-82
2022/11/01 09:55:13;;;;;;;;;;;21.10;99.90;;;;;;4961423;28;19934;-82
2022/11/01 09:57:41;;;;;;;;;;;21.10;99.90;;;;;;4963027;28;19930;-83
2022/11/01 10:00:12;;;;;;;;;;;21.10;99.90;;;;;;4962522;28;19926;-83
2022/11/01 10:03:02;;;;;;;;;;;21.10;99.90;;;;;;4962551;28;20278;-84
2022/11/01 10:05:41;;;;;;;;;;;21.10;99.90;;;;;;4962121;28;19926;-84
2022/11/01 10:08:11;;;;;;;;;;;21.00;99.90;;;;;;4963213;28;19927;-82
2022/11/01 10:10:39;;;;;;;;;;;21.00;99.90;;;;;;4962280;28;19926;-82
2022/11/01 10:13:16;;;;;;;;;;;21.00;99.90;;;;;;4962027;28;19926;-81
2022/11/01 10:15:50;;;;;;;;;;;21.00;99.90;;;;;;4961223;28;19949;-81
2022/11/01 10:18:21;;;;;;;;;;;21.00;99.90;;;;;;4962088;28;20014;-82
2022/11/01 10:20:49;;;;;;;;;;;21.00;99.90;;;;;;4962166;28;19926;-82
2022/11/01 10:23:16;;;;;;;;;;;21.00;99.90;;;;;;4962587;28;19927;-82
2022/11/01 10:25:47;;;;;;;;;;;21.00;99.90;;;;;;4961893;28;20301;-81
2022/11/01 10:28:18;;;;;;;;;;;21.00;99.90;;;;;;4962399;28;19930;-82
2022/11/01 10:30:47;;;;;;;;;;;21.00;99.90;;;;;;4962381;28;19931;-84
2022/11/01 10:33:21;;;;;;;;;;;21.00;99.90;;;;;;4962081;28;19930;-82
2022/11/01 10:35:53;;;;;;;;;;;21.00;99.90;;;;;;4961801;28;19927;-82
2022/11/01 10:38:25;;;;;;;;;;;21.10;99.90;;;;;;4960503;28;20382;-83
2022/11/01 10:40:54;;;;;;;;;;;21.00;99.90;;;;;;4960675;28;19926;-82
2022/11/01 10:43:23;;;;;;;;;;;21.00;99.90;;;;;;4960748;28;19933;-82
2022/11/01 10:45:51;;;;;;;;;;;21.00;99.90;;;;;;4959293;28;19926;-81
2022/11/01 10:48:22;;;;;;;;;;;21.00;99.90;;;;;;4959978;28;19930;-83
2022/11/01 10:50:49;;;;;;;;;;;21.00;99.90;;;;;;4958545;28;20390;-80
2022/11/01 10:53:18;;;;;;;;;;;21.00;99.90;;;;;;4957889;28;19926;-81
2022/11/01 10:55:47;;;;;;;;;;;21.00;99.90;;;;;;4959364;28;19931;-82
2022/11/01 10:58:16;;;;;;;;;;;21.00;99.90;;;;;;4958010;28;19933;-80
2022/11/01 11:00:42;;;;;;;;;;;21.00;99.90;;;;;;4960047;28;19926;-82
2022/11/01 11:03:15;;;;;;;;;;;21.10;99.90;;;;;;4961234;28;19934;-81
2022/11/01 11:05:47;;;;;;;;;;;21.10;99.90;;;;;;4961037;28;19926;-80
2022/11/01 11:08:14;;;;;;;;;;;21.10;99.90;;;;;;4959950;28;19927;-82
2022/11/01 11:10:42;;;;;;;;;;;21.10;99.90;;;;;;4958460;28;19934;-86
2022/11/01 11:13:09;;;;;;;;;;;21.10;99.90;;;;;;4960844;28;19927;-85
2022/11/01 11:15:43;;;;;;;;;;;21.10;99.90;;;;;;4965174;28;19933;-85
2022/11/01 11:18:16;;;;;;;;;;;21.10;99.90;;;;;;4968202;28;19926;-84
2022/11/01 11:20:43;;;;;;;;;;;21.70;99.90;;;;;;4964277;28;19933;-84
2022/11/01 11:23:11;;;;;;;;;;;21.20;99.90;;;;;;4962731;28;19926;-84
2022/11/01 11:25:40;;;;;;;;;;;21.00;99.90;;;;;;4962183;28;20231;-84
2022/11/01 11:28:20;;;;;;;;;;;21.40;99.90;;;;;;4962097;28;19930;-84
2022/11/01 11:30:46;;;;;;;;;;;21.30;99.90;;;;;;4961740;28;19927;-84
2022/11/01 11:33:16;;;;;;;;;;;21.20;99.90;;;;;;4962707;28;19959;-84
2022/11/01 11:35:52;;;;;;;;;;;20.10;99.90;;;;;;4960939;28;19933;-84
2022/11/01 11:38:38;;;;;;;;;;;21.20;99.90;;;;;;4960900;28;19933;-84
2022/11/01 11:41:05;;;;;;;;;;;21.20;99.90;;;;;;4961269;28;19937;-86
2022/11/01 11:43:35;;;;;;;;;;;21.20;99.90;;;;;;4959999;28;19978;-85
2022/11/01 11:46:07;;;;;;;;;;;21.20;99.90;;;;;;4960699;28;20032;-86
2022/11/01 11:48:33;;;;;;;;;;;21.20;99.90;;;;;;4959662;28;20014;-86
2022/11/01 11:51:02;;;;;;;;;;;21.20;99.90;;;;;;4960567;28;19933;-85
2022/11/01 11:53:29;;;;;;;;;;;21.20;99.90;;;;;;4960837;28;19958;-84
2022/11/01 11:55:57;;;;;;;;;;;21.20;99.90;;;;;;4960757;28;19927;-84
2022/11/01 11:58:27;;;;;;;;;;;21.10;99.90;;;;;;4961299;28;19930;-85
2022/11/01 12:00:58;;;;;;;;;;;21.80;99.90;;;;;;4960190;28;19977;-85
2022/11/01 12:03:25;;;;;;;;;;;22.20;99.90;;;;;;4962682;28;19930;-84
2022/11/01 12:05:54;;;;;;;;;;;21.30;99.90;;;;;;4961579;28;19934;-84
2022/11/01 12:08:32;;;;;;;;;;;21.30;99.90;;;;;;4960405;28;19934;-85
2022/11/01 12:10:59;;;;;;;;;;;21.30;99.90;;;;;;4959809;28;20017;-86
2022/11/01 12:13:26;;;;;;;;;;;21.40;99.90;;;;;;4963115;28;20302;-83
2022/11/01 12:16:07;;;;;;;;;;;21.30;99.90;;;;;;4961533;28;19933;-84
2022/11/01 12:18:33;;;;;;;;;;;21.40;99.90;;;;;;4960736;28;19926;-84
2022/11/01 12:21:00;;;;;;;;;;;21.40;99.90;;;;;;4961962;28;19927;-84
2022/11/01 12:23:29;;;;;;;;;;;21.40;99.90;;;;;;4960454;28;19926;-84
2022/11/01 12:25:57;;;;;;;;;;;21.40;99.90;;;;;;4959211;28;19930;-85
2022/11/01 12:28:26;;;;;;;;;;;21.40;99.90;;;;;;4958801;28;19962;-84
2022/11/01 12:30:56;;;;;;;;;;;21.40;99.90;;;;;;4958725;28;19927;-85
2022/11/01 12:33:25;;;;;;;;;;;21.40;99.90;;;;;;4958283;28;20382;-85
2022/11/01 12:35:53;;;;;;;;;;;21.40;99.90;;;;;;4958418;28;19926;-86
2022/11/01 12:38:35;;;;;;;;;;;21.40;99.90;;;;;;4961792;28;19926;-84
2022/11/01 12:41:10;;;;;;;;;;;21.40;99.90;;;;;;4960832;28;19926;-85
2022/11/01 12:43:43;;;;;;;;;;;21.40;99.90;;;;;;4957958;28;19927;-87
2022/11/01 12:46:12;;;;;;;;;;;21.40;99.90;;;;;;4957621;28;19926;-87
2022/11/01 12:48:43;;;;;;;;;;;21.20;99.90;;;;;;4962652;28;19927;-84
2022/11/01 12:51:12;;;;;;;;;;;21.40;99.90;;;;;;4960921;28;19950;-82
2022/11/01 12:53:41;;;;;;;;;;;21.30;99.90;;;;;;4962872;28;19970;-83
2022/11/01 12:56:10;;;;;;;;;;;21.30;99.90;;;;;;4961382;28;19934;-85
2022/11/01 12:58:36;;;;;;;;;;;22.20;99.90;;;;;;4962347;28;19926;-84
2022/11/01 13:01:20;;;;;;;;;;;21.40;99.90;;;;;;4961406;28;19926;-82
2022/11/01 13:03:51;;;;;;;;;;;21.30;99.90;;;;;;4961126;28;19930;-82
2022/11/01 13:06:31;;;;;;;;;;;21.60;99.90;;;;;;4961347;28;19933;-83
2022/11/01 13:09:01;;;;;;;;;;;21.30;99.90;;;;;;4960440;28;19926;-83
2022/11/01 13:11:31;;;;;;;;;;;21.40;99.90;;;;;;4960703;28;19935;-83
2022/11/01 13:14:02;;;;;;;;;;;21.30;99.90;;;;;;4961945;28;19927;-83
2022/11/01 13:16:31;;;;;;;;;;;21.20;99.90;;;;;;4960300;28;20440;-83
2022/11/01 13:19:04;;;;;;;;;;;21.20;99.90;;;;;;4961500;28;19931;-83
2022/11/01 13:21:34;;;;;;;;;;;21.20;99.90;;;;;;4961205;28;19927;-83
2022/11/01 13:24:04;;;;;;;;;;;21.20;99.90;;;;;;4960461;28;19926;-84
2022/11/01 13:26:34;;;;;;;;;;;21.20;99.90;;;;;;4960097;28;19926;-83
2022/11/01 13:29:07;;;;;;;;;;;21.20;99.90;;;;;;4959606;28;19927;-83
2022/11/01 13:31:39;;;;;;;;;;;21.20;99.90;;;;;;4960076;28;19926;-83
2022/11/01 13:34:15;;;;;;;;;;;21.20;99.90;;;;;;4959953;28;20302;-83
2022/11/01 13:36:45;;;;;;;;;;;21.20;99.90;;;;;;4959238;28;19926;-83
2022/11/01 13:39:16;;;;;;;;;;;21.20;99.90;;;;;;4961281;28;19948;-83
2022/11/01 13:41:48;;;;;;;;;;;21.20;99.90;;;;;;4960506;28;19926;-83
2022/11/01 13:44:16;;;;;;;;;;;21.10;99.90;;;;;;4960888;28;20338;-83
2022/11/01 13:46:52;;;;;;;;;;;21.10;99.90;;;;;;4960225;28;20272;-83
2022/11/01 13:49:35;;;;;;;;;;;21.10;99.90;;;;;;4960800;28;19927;-83
2022/11/01 13:52:05;;;;;;;;;;;21.10;99.90;;;;;;4959949;28;19927;-83
2022/11/01 13:54:36;;;;;;;;;;;21.20;99.90;;;;;;4958570;28;19927;-83
2022/11/01 13:57:10;;;;;;;;;;;21.10;99.90;;;;;;4958543;28;20386;-83
2022/11/01 13:59:43;;;;;;;;;;;21.00;99.90;;;;;;4958418;28;19933;-82
2022/11/01 14:02:28;;;;;;;;;;;21.10;99.90;;;;;;4958396;28;19926;-82
2022/11/01 14:04:57;;;;;;;;;;;21.10;99.90;;;;;;4958733;28;19986;-82
2022/11/01 14:07:24;;;;;;;;;;;21.20;99.90;;;;;;4957498;28;19937;-83
2022/11/01 14:09:51;;;;;;;;;;;21.10;99.90;;;;;;4957688;28;20298;-82
2022/11/01 14:12:32;;;;;;;;;;;21.10;99.90;;;;;;4959540;28;19926;-81
2022/11/01 14:15:13;;;;;;;;;;;21.10;99.90;;;;;;4968546;28;19956;-81
2022/11/01 14:18:02;;;;;;;;;;;21.10;99.90;;;;;;4958294;28;20390;-82
2022/11/01 14:20:50;;;;;;;;;;;21.10;99.90;;;;;;4961613;28;20033;-82
2022/11/01 14:23:51;;;;;;;;;;;21.10;99.90;;;;;;4957764;28;19978;-82
2022/11/01 14:26:36;;;;;;;;;;;21.10;99.90;;;;;;4960775;28;20430;-81
2022/11/01 14:29:10;;;;;;;;;;;21.10;99.90;;;;;;4961360;28;19926;-81
2022/11/01 14:31:37;;;;;;;;;;;21.10;99.90;;;;;;4961405;28;19937;-81
2022/11/01 14:34:06;;;;;;;;;;;21.00;99.90;;;;;;4962432;28;19926;-81
2022/11/01 14:36:34;;;;;;;;;;;21.10;99.90;;;;;;4962017;28;19939;-81
2022/11/01 14:39:02;;;;;;;;;;;21.00;99.90;;;;;;4961754;28;19933;-81
2022/11/01 14:41:29;;;;;;;;;;;21.00;99.90;;;;;;4962434;28;19926;-81
2022/11/01 14:44:00;;;;;;;;;;;21.10;99.90;;;;;;4962932;28;19985;-81
2022/11/01 14:46:29;;;;;;;;;;;21.00;99.90;;;;;;4961932;28;19954;-81
2022/11/01 14:48:59;;;;;;;;;;;21.00;99.90;;;;;;4961766;28;19937;-81
2022/11/01 14:51:29;;;;;;;;;;;21.00;99.90;;;;;;4964919;28;19931;-81
2022/11/01 14:53:58;;;;;;;;;;;21.00;99.90;;;;;;4970776;28;19937;-82
2022/11/01 14:56:31;;;;;;;;;;;20.90;99.90;;;;;;4971389;28;19926;-82
2022/11/01 14:59:11;;;;;;;;;;;20.70;99.90;;;;;;4970597;28;19926;-82
2022/11/01 15:01:44;;;;;;;;;;;20.90;99.90;;;;;;4969931;28;19926;-83
2022/11/01 15:04:18;;;;;;;;;;;20.80;99.90;;;;;;4968406;28;19926;-83
2022/11/01 15:06:45;;;;;;;;;;;20.90;99.90;;;;;;4964863;28;19933;-83
2022/11/01 15:09:14;;;;;;;;;;;20.90;99.90;;;;;;4965106;28;19937;-83
2022/11/01 15:11:41;;;;;;;;;;;20.90;99.90;;;;;;4968190;28;19926;-83
2022/11/01 15:14:08;;;;;;;;;;;20.90;99.90;;;;;;4968975;28;19930;-83
2022/11/01 15:16:35;;;;;;;;;;;20.90;99.90;;;;;;4969328;28;19932;-83
2022/11/01 15:19:05;;;;;;;;;;;21.20;99.90;;;;;;4968690;28;19926;-82
2022/11/01 15:21:32;;;;;;;;;;;21.00;99.90;;;;;;4968038;28;19926;-82
2022/11/01 15:24:01;;;;;;;;;;;21.00;99.90;;;;;;4970246;28;19926;-82
2022/11/01 15:26:30;;;;;;;;;;;20.90;99.90;;;;;;4965001;28;19926;-81
2022/11/01 15:28:57;;;;;;;;;;;20.90;99.90;;;;;;4961221;28;19930;-81
2022/11/01 15:31:24;;;;;;;;;;;21.00;99.90;;;;;;4961146;28;19937;-81
2022/11/01 15:33:55;;;;;;;;;;;20.90;99.90;;;;;;4962484;28;19926;-83
2022/11/01 15:36:32;;;;;;;;;;;20.90;99.90;;;;;;4961079;28;19926;-83
2022/11/01 15:38:59;;;;;;;;;;;20.90;99.90;;;;;;4963817;28;20025;-84
2022/11/01 15:41:27;;;;;;;;;;;20.90;99.90;;;;;;4962149;28;19926;-83
2022/11/01 15:43:55;;;;;;;;;;;21.00;99.90;;;;;;4964688;28;19926;-84
2022/11/01 15:46:24;;;;;;;;;;;21.00;99.90;;;;;;4965919;28;19926;-84
2022/11/01 15:52:31;;;;;;;;;;;21.00;99.90;;;;;;4961751;28;19926;-83
2022/11/01 15:55:01;;;;;;;;;;;22.10;99.90;;;;;;4961168;28;20017;-82
2022/11/01 15:57:31;;;;;;;;;;;21.00;99.90;;;;;;4962120;28;19930;-82
2022/11/01 16:00:04;;;;;;;;;;;21.00;99.90;;;;;;4960546;28;19938;-82
2022/11/01 16:02:34;;;;;;;;;;;21.00;99.90;;;;;;4960048;28;19927;-83
2022/11/01 16:05:00;;;;;;;;;;;21.00;99.90;;;;;;4961480;28;19973;-82
2022/11/01 16:07:30;;;;;;;;;;;20.90;99.90;;;;;;4960082;28;20412;-85
2022/11/01 16:09:58;;;;;;;;;;;20.90;99.90;;;;;;4959468;28;19933;-87
2022/11/01 16:12:31;;;;;;;;;;;20.80;99.90;;;;;;4960721;28;20377;-85
2022/11/01 16:15:03;;;;;;;;;;;20.90;99.90;;;;;;4961609;28;20017;-84
2022/11/01 16:17:46;;;;;;;;;;;20.50;99.90;;;;;;4961233;28;19934;-84
2022/11/01 16:20:30;;;;;;;;;;;20.80;99.90;;;;;;4959303;28;20382;-87
2022/11/01 16:22:59;;;;;;;;;;;21.00;99.90;;;;;;4959594;28;19934;-86
2022/11/01 16:25:26;;;;;;;;;;;20.80;99.90;;;;;;4961566;28;19926;-88
2022/11/01 16:27:54;;;;;;;;;;;20.80;99.90;;;;;;4960560;28;20326;-86
2022/11/01 16:30:44;;;;;;;;;;;20.70;99.90;;;;;;4963301;28;20314;-85
2022/11/01 16:33:18;;;;;;;;;;;20.80;99.90;;;;;;4961811;28;19927;-83
2022/11/01 16:35:46;;;;;;;;;;;20.80;99.90;;;;;;4964897;28;20291;-84
2022/11/01 16:38:41;;;;;;;;;;;19.80;99.90;;;;;;4963773;28;19959;-83
2022/11/01 16:41:14;;;;;;;;;;;20.70;99.90;;;;;;4962433;28;19926;-84
2022/11/01 16:43:41;;;;;;;;;;;20.80;99.90;;;;;;4961307;28;19927;-84
2022/11/01 16:46:08;;;;;;;;;;;20.70;99.90;;;;;;4960851;28;19927;-84
2022/11/01 16:48:47;;;;;;;;;;;20.70;99.90;;;;;;4960994;28;19926;-83
2022/11/01 16:51:14;;;;;;;;;;;20.70;99.90;;;;;;4961349;28;19927;-83
2022/11/01 16:53:42;;;;;;;;;;;20.70;99.90;;;;;;4961484;28;20275;-84
2022/11/01 16:56:12;;;;;;;;;;;20.70;99.90;;;;;;4962867;28;19927;-84
2022/11/01 16:58:38;;;;;;;;;;;21.50;99.90;;;;;;4961954;28;20295;-84
2022/11/01 17:01:05;;;;;;;;;;;20.70;99.90;;;;;;4963758;28;20283;-84
2022/11/01 17:03:31;;;;;;;;;;;20.70;99.90;;;;;;4958834;28;20387;-84
2022/11/01 17:05:58;;;;;;;;;;;20.50;99.90;;;;;;4959607;28;19926;-83
2022/11/01 17:08:28;;;;;;;;;;;20.60;99.90;;;;;;4960763;28;19927;-82
2022/11/01 17:10:56;;;;;;;;;;;20.70;99.90;;;;;;4960354;28;19973;-81
2022/11/01 17:13:23;;;;;;;;;;;20.70;99.90;;;;;;4959879;28;19999;-81
2022/11/01 17:15:50;;;;;;;;;;;20.80;99.90;;;;;;4960907;28;20401;-81
2022/11/01 17:18:19;;;;;;;;;;;20.80;99.90;;;;;;4960893;28;19930;-81
2022/11/01 17:20:47;;;;;;;;;;;20.80;99.90;;;;;;4960776;28;19927;-82
2022/11/01 17:23:15;;;;;;;;;;;20.80;99.90;;;;;;4961428;28;19927;-81
2022/11/01 17:25:44;;;;;;;;;;;20.90;99.90;;;;;;4961558;28;19926;-81
2022/11/01 17:28:11;;;;;;;;;;;20.90;99.90;;;;;;4961589;28;19926;-81
2022/11/01 17:30:38;;;;;;;;;;;20.90;99.90;;;;;;4960849;28;20379;-82
2022/11/01 17:33:05;;;;;;;;;;;20.90;99.90;;;;;;4960636;28;19949;-82
2022/11/01 17:35:32;;;;;;;;;;;20.90;99.90;;;;;;4961121;28;19950;-80
2022/11/01 17:37:59;;;;;;;;;;;21.00;99.90;;;;;;4960421;28;19927;-83
2022/11/01 17:40:25;;;;;;;;;;;20.90;99.90;;;;;;4960779;28;19934;-83
2022/11/01 17:42:52;;;;;;;;;;;21.00;99.90;;;;;;4960975;28;19927;-83
2022/11/01 17:45:21;;;;;;;;;;;21.00;99.90;;;;;;4961979;28;19949;-84
2022/11/01 17:47:48;;;;;;;;;;;21.00;99.90;;;;;;4958916;28;19934;-83
2022/11/01 17:50:15;;;;;;;;;;;21.00;99.90;;;;;;4960272;28;19933;-84
2022/11/01 17:52:43;;;;;;;;;;;21.00;99.90;;;;;;4959025;28;20405;-84
2022/11/01 17:55:11;;;;;;;;;;;21.10;99.90;;;;;;4958470;28;20294;-86
2022/11/01 17:57:38;;;;;;;;;;;21.00;99.90;;;;;;4957970;28;20310;-86
2022/11/01 18:00:05;;;;;;;;;;;21.10;99.90;;;;;;4958864;28;19927;-86
2022/11/01 18:02:33;;;;;;;;;;;21.10;99.90;;;;;;4956725;28;19926;-86
2022/11/01 18:05:00;;;;;;;;;;;21.10;99.90;;;;;;4957486;28;19926;-87
2022/11/01 18:07:28;;;;;;;;;;;21.10;99.90;;;;;;4959064;28;19934;-85
2022/11/01 18:09:55;;;;;;;;;;;21.10;99.90;;;;;;4959725;28;19927;-87
2022/11/01 18:12:25;;;;;;;;;;;21.00;99.90;;;;;;4959122;28;19926;-86
2022/11/01 18:14:55;;;;;;;;;;;21.10;99.90;;;;;;4959333;28;19926;-85
2022/11/01 18:17:26;;;;;;;;;;;21.10;99.90;;;;;;4959242;28;19930;-85
2022/11/01 18:19:57;;;;;;;;;;;21.10;99.90;;;;;;4959333;28;19930;-85
2022/11/01 18:22:30;;;;;;;;;;;21.10;99.90;;;;;;4959144;28;19926;-86
2022/11/01 18:24:58;;;;;;;;;;;21.10;99.90;;;;;;4957965;28;20275;-85
2022/11/01 18:27:30;;;;;;;;;;;21.10;99.90;;;;;;4958918;28;19926;-84
2022/11/01 18:29:57;;;;;;;;;;;21.10;99.90;;;;;;4960078;28;19926;-87
2022/11/01 18:32:28;;;;;;;;;;;21.10;99.90;;;;;;4960108;28;19926;-84
2022/11/01 18:34:58;;;;;;;;;;;21.10;99.90;;;;;;4959954;28;19934;-85
2022/11/01 18:37:26;;;;;;;;;;;21.10;99.90;;;;;;4958763;28;19937;-87
2022/11/01 18:39:58;;;;;;;;;;;21.20;99.90;;;;;;4956340;28;20323;-87
2022/11/01 18:42:25;;;;;;;;;;;21.20;99.90;;;;;;4957105;28;19930;-88
2022/11/01 18:44:55;;;;;;;;;;;21.20;99.90;;;;;;4956914;28;19930;-89
2022/11/01 18:47:24;;;;;;;;;;;21.20;99.90;;;;;;4955867;28;19927;-88
2022/11/01 18:49:53;;;;;;;;;;;21.40;99.90;;;;;;4956214;28;19927;-87
2022/11/01 18:52:21;;;;;;;;;;;21.20;99.90;;;;;;4955801;28;20021;-87
2022/11/01 18:54:48;;;;;;;;;;;21.20;99.90;;;;;;4955913;28;19935;-87
2022/11/01 18:57:16;;;;;;;;;;;21.70;99.90;;;;;;4955703;28;19933;-87
2022/11/01 18:59:43;;;;;;;;;;;20.60;99.90;;;;;;4955455;28;19933;-87
2022/11/01 19:02:12;;;;;;;;;;;21.00;99.90;;;;;;4955809;28;19934;-88
2022/11/01 19:04:41;;;;;;;;;;;21.20;99.90;;;;;;4955754;28;19961;-87
2022/11/01 19:07:11;;;;;;;;;;;21.10;99.90;;;;;;4955836;28;20053;-87
2022/11/01 19:09:41;;;;;;;;;;;21.00;99.90;;;;;;4955779;28;19973;-88
2022/11/01 19:12:13;;;;;;;;;;;21.30;99.90;;;;;;4955463;28;19931;-88
2022/11/01 19:14:40;;;;;;;;;;;21.00;99.90;;;;;;4955771;28;19926;-88
2022/11/01 19:17:19;;;;;;;;;;;21.40;99.90;;;;;;4955522;28;19926;-88
2022/11/01 19:19:47;;;;;;;;;;;21.10;99.90;;;;;;4955444;28;19933;-88
2022/11/01 19:22:42;;;;;;;;;;;21.00;99.90;;;;;;4955251;28;19984;-88
2022/11/01 19:25:20;;;;;;;;;;;21.10;99.90;;;;;;4921607;29;19937;-89
2022/11/01 19:27:47;;;;;;;;;;;21.10;99.90;;;;;;4955572;28;19926;-89
2022/11/01 19:30:20;;;;;;;;;;;21.10;99.90;;;;;;4955845;28;20267;-88
2022/11/01 19:32:47;;;;;;;;;;;21.00;99.90;;;;;;4957823;28;19934;-87
2022/11/01 19:35:15;;;;;;;;;;;21.00;99.90;;;;;;4959389;28;19926;-88
2022/11/01 19:37:42;;;;;;;;;;;21.10;99.90;;;;;;4963581;28;19933;-88
2022/11/01 19:40:13;;;;;;;;;;;21.00;99.90;;;;;;4963372;28;19934;-83
2022/11/01 19:42:41;;;;;;;;;;;21.00;99.90;;;;;;4962487;28;19927;-90
2022/11/01 19:45:27;;;;;;;;;;;21.90;99.90;;;;;;4959007;28;19926;-91
2022/11/01 19:47:54;;;;;;;;;;;21.00;99.90;;;;;;4958933;28;19989;-90
2022/11/01 19:50:22;;;;;;;;;;;21.00;99.90;;;;;;4958903;28;20302;-90
2022/11/01 19:52:49;;;;;;;;;;;21.00;99.90;;;;;;4958984;28;19930;-89
2022/11/01 19:55:40;;;;;;;;;;;20.40;99.90;;;;;;4958649;28;19926;-90
2022/11/01 19:58:21;;;;;;;;;;;21.00;99.90;;;;;;4943856;28;19934;-90
2022/11/01 20:00:48;;;;;;;;;;;20.90;99.90;;;;;;4959196;28;19934;-90
2022/11/01 20:03:20;;;;;;;;;;;20.90;99.90;;;;;;4958350;28;20387;-89
2022/11/01 20:05:46;;;;;;;;;;;20.00;99.90;;;;;;4958491;28;19926;-89
2022/11/01 20:08:16;;;;;;;;;;;20.90;99.90;;;;;;4958486;28;19930;-89
2022/11/01 20:10:42;;;;;;;;;;;20.90;99.90;;;;;;4958570;28;19927;-89
2022/11/01 20:13:09;;;;;;;;;;;20.90;99.90;;;;;;4958563;28;19930;-89
2022/11/01 20:15:37;;;;;;;;;;;20.90;99.90;;;;;;4958041;28;20378;-90
2022/11/01 20:18:03;;;;;;;;;;;20.90;99.90;;;;;;4958748;28;19930;-90
2022/11/01 20:20:30;;;;;;;;;;;20.80;99.90;;;;;;4960384;28;19942;-86
2022/11/01 20:22:57;;;;;;;;;;;20.90;99.90;;;;;;4958892;28;20024;-89
2022/11/01 20:25:28;;;;;;;;;;;21.00;99.90;;;;;;4957778;28;19927;-87
2022/11/01 20:27:55;;;;;;;;;;;20.70;99.90;;;;;;4957863;28;20025;-87
2022/11/01 20:30:21;;;;;;;;;;;20.90;99.90;;;;;;4958157;28;19933;-86
2022/11/01 20:32:50;;;;;;;;;;;20.60;99.90;;;;;;4958110;28;19953;-87
2022/11/01 20:35:16;;;;;;;;;;;20.90;99.90;;;;;;4957902;28;19977;-87
2022/11/01 20:37:43;;;;;;;;;;;20.90;99.90;;;;;;4957801;28;19926;-87
2022/11/01 20:40:11;;;;;;;;;;;20.90;99.90;;;;;;4957422;28;19934;-87
2022/11/01 20:42:37;;;;;;;;;;;20.90;99.90;;;;;;4957751;28;19993;-87
2022/11/01 20:45:05;;;;;;;;;;;21.30;99.90;;;;;;4957888;28;19941;-86
2022/11/01 20:47:31;;;;;;;;;;;20.90;99.90;;;;;;4956469;28;19977;-87
2022/11/01 20:50:00;;;;;;;;;;;20.90;99.90;;;;;;4957552;28;19949;-87
2022/11/01 20:52:26;;;;;;;;;;;20.90;99.90;;;;;;4957556;28;19926;-87
2022/11/01 20:54:53;;;;;;;;;;;20.90;99.90;;;;;;4957475;28;19933;-87
2022/11/01 20:57:19;;;;;;;;;;;20.90;99.90;;;;;;4957411;28;19927;-87
2022/11/01 20:59:48;;;;;;;;;;;20.90;99.90;;;;;;4957114;28;20371;-87
2022/11/01 21:02:17;;;;;;;;;;;20.90;99.90;;;;;;4957331;28;19927;-87
2022/11/01 21:04:44;;;;;;;;;;;20.90;99.90;;;;;;4957260;28;19926;-87
2022/11/01 21:07:13;;;;;;;;;;;20.80;99.90;;;;;;4957015;28;19934;-87
2022/11/01 21:09:42;;;;;;;;;;;20.80;99.90;;;;;;4957125;28;19927;-87
2022/11/01 21:12:22;;;;;;;;;;;20.90;99.90;;;;;;4957278;28;19931;-87
2022/11/01 21:14:49;;;;;;;;;;;21.80;99.90;;;;;;4957290;28;19937;-88